createdAt,value
2023-05-13T00:08:26.398Z,100971.00
2023-05-13T00:18:26.243Z,100971.00
2023-05-13T00:28:26.348Z,100975.00
2023-05-13T00:38:26.260Z,100977.00
2023-05-13T00:48:26.231Z,100979.00
2023-05-13T00:58:26.244Z,100981.00
2023-05-13T01:08:26.254Z,100979.00
2023-05-13T01:18:26.387Z,100977.00
2023-05-13T01:28:27.536Z,100973.00
2023-05-13T01:38:28.551Z,100975.00
2023-05-13T01:48:28.403Z,100977.00
2023-05-13T01:58:28.604Z,100981.00
2023-05-13T02:08:28.439Z,100979.00
2023-05-13T02:18:28.514Z,100977.00
2023-05-13T02:28:28.371Z,100977.00
2023-05-13T02:38:28.689Z,100973.00
2023-05-13T02:48:28.531Z,100971.00
2023-05-13T02:58:28.994Z,100971.00
2023-05-13T03:08:29.423Z,100969.00
2023-05-13T03:18:31.438Z,100964.00
2023-05-13T03:28:32.079Z,100967.00
2023-05-13T03:38:33.012Z,100969.00
2023-05-13T03:48:34.529Z,100979.00
2023-05-13T03:58:34.743Z,100981.00
2023-05-13T04:08:34.561Z,100979.00
2023-05-13T04:18:35.402Z,100991.00
2023-05-13T04:28:36.207Z,101005.00
2023-05-13T04:38:37.344Z,101005.00
2023-05-13T04:48:37.727Z,101007.00
2023-05-13T04:58:37.819Z,101011.00
2023-05-13T05:08:37.964Z,101016.00
2023-05-13T05:18:39.730Z,101022.00
2023-05-13T05:28:40.433Z,101026.00
2023-05-13T05:38:44.382Z,101032.00
2023-05-13T05:48:45.473Z,101036.00
2023-05-13T05:58:46.080Z,101046.00
2023-05-13T06:08:47.087Z,101068.00
2023-05-13T06:18:47.728Z,101076.00
2023-05-13T06:28:47.731Z,101080.00
2023-05-13T06:38:47.931Z,101078.00
2023-05-13T06:48:47.792Z,101070.00
2023-05-13T06:58:47.827Z,101064.00
2023-05-13T07:08:47.841Z,101044.00
2023-05-13T07:18:47.775Z,101034.00
2023-05-13T07:28:47.826Z,101040.00
2023-05-13T07:38:47.820Z,101048.00
2023-05-13T07:48:47.854Z,101058.00
2023-05-13T07:58:48.853Z,101038.00
2023-05-13T08:08:48.863Z,101032.00
2023-05-13T08:18:48.910Z,101026.00
2023-05-13T08:28:50.533Z,101030.00
2023-05-13T08:38:50.949Z,101038.00
2023-05-13T08:48:50.928Z,101036.00
2023-05-13T08:58:50.946Z,101016.00
2023-05-13T09:08:50.987Z,100999.00
2023-05-13T09:18:51.148Z,100993.00
2023-05-13T09:28:51.111Z,100989.00
2023-05-13T09:38:51.298Z,100979.00
2023-05-13T09:48:55.161Z,100977.00
2023-05-13T09:58:55.160Z,100971.00
2023-05-13T10:08:55.055Z,100962.00
2023-05-13T10:18:55.172Z,100946.00
2023-05-13T10:28:56.028Z,100928.00
2023-05-13T10:38:56.196Z,100913.00
2023-05-13T10:48:56.271Z,100909.00
2023-05-13T10:58:56.132Z,100903.00
2023-05-13T11:08:56.487Z,100901.00
2023-05-13T11:18:56.335Z,100899.00
2023-05-13T11:28:56.319Z,100897.00
2023-05-13T11:38:56.195Z,100899.00
2023-05-13T11:48:56.286Z,100915.00
2023-05-13T11:58:56.310Z,100920.00
2023-05-13T12:08:56.431Z,100920.00
2023-05-13T12:18:56.667Z,100924.00
2023-05-13T12:28:57.655Z,100930.00
2023-05-13T12:38:59.797Z,100932.00
2023-05-13T12:48:59.288Z,100940.00
2023-05-13T12:58:59.340Z,100948.00
2023-05-13T13:09:02.396Z,100956.00
2023-05-13T13:19:02.372Z,100950.00
2023-05-13T13:29:02.398Z,100942.00
2023-05-13T13:39:02.406Z,100928.00
2023-05-13T13:49:10.130Z,100922.00
2023-05-13T13:59:04.513Z,100915.00
2023-05-13T14:09:04.479Z,100913.00
2023-05-13T14:19:04.682Z,100905.00
2023-05-13T14:29:04.525Z,100901.00
2023-05-13T14:39:04.473Z,100899.00
2023-05-13T14:49:04.545Z,100907.00
2023-05-13T14:59:04.502Z,100913.00
2023-05-13T15:09:04.275Z,100938.00
2023-05-13T15:19:04.544Z,100971.00
2023-05-13T15:29:04.639Z,101009.00
2023-05-13T15:39:04.613Z,101026.00
2023-05-13T15:49:04.672Z,101024.00
2023-05-13T15:59:04.645Z,100985.00
2023-05-13T16:09:04.606Z,100950.00
2023-05-13T16:19:04.730Z,100930.00
2023-05-13T16:29:04.614Z,100932.00
2023-05-13T16:39:05.117Z,100930.00
2023-05-13T16:49:05.786Z,100924.00
2023-05-13T16:59:08.742Z,100920.00
2023-05-13T17:09:08.702Z,100922.00
2023-05-13T17:19:08.738Z,100928.00
2023-05-13T17:29:08.849Z,100936.00
2023-05-13T17:39:08.838Z,100944.00
2023-05-13T17:49:08.893Z,100944.00
2023-05-13T17:59:08.792Z,100944.00
2023-05-13T18:09:08.832Z,100946.00
2023-05-13T18:19:08.826Z,100944.00
2023-05-13T18:29:09.025Z,100944.00
2023-05-13T18:39:10.602Z,100944.00
2023-05-13T18:49:10.802Z,100942.00
2023-05-13T18:59:10.836Z,100940.00
2023-05-13T19:09:10.921Z,100946.00
2023-05-13T19:19:11.009Z,100948.00
2023-05-13T19:29:10.984Z,100956.00
2023-05-13T19:39:11.026Z,100969.00
2023-05-13T19:49:10.963Z,100971.00
2023-05-13T19:59:11.036Z,100975.00
2023-05-13T20:09:11.622Z,100975.00
2023-05-13T20:19:12.120Z,100979.00
2023-05-13T20:29:12.271Z,100983.00
2023-05-13T20:39:12.153Z,100979.00
2023-05-13T20:49:12.252Z,100983.00
2023-05-13T20:59:12.062Z,100981.00
2023-05-13T21:09:12.012Z,100981.00
2023-05-13T21:19:12.204Z,100977.00
2023-05-13T21:29:12.025Z,100981.00
2023-05-13T21:39:12.042Z,100981.00
2023-05-13T21:49:12.250Z,100983.00
2023-05-13T21:59:13.063Z,100983.00
2023-05-13T22:09:13.080Z,100983.00
2023-05-13T22:19:13.228Z,100985.00
2023-05-13T22:29:13.204Z,100981.00
2023-05-13T22:39:13.931Z,100979.00
2023-05-13T22:49:14.244Z,100981.00
2023-05-13T22:59:14.187Z,100975.00
2023-05-13T23:09:14.128Z,100967.00
2023-05-13T23:19:14.240Z,100965.00
2023-05-13T23:29:14.185Z,100965.00
2023-05-13T23:39:14.248Z,100967.00
2023-05-13T23:49:14.177Z,100967.00
2023-05-13T23:59:14.323Z,100960.00
